Time;durP1;ratioP1;P1;durP2;ratioP2;P2;SDS_P1;SDS_P2;PMS_P1;PMS_P2;Temp;Humidity;BMP_temperature;BMP_pressure;BME280_temperature;BME280_humidity;BME280_pressure;Samples;Min_cycle;Max_cycle;Signal;HPM_P1;HPM_P2
2022/09/14 00:00:40;;;;;;;;;;;;;;;;;;5070835;28;19943;-61
2022/09/14 00:03:06;;;;;;;;;;;;;;;;;;5063916;28;19975;-61
2022/09/14 00:05:31;;;;;;;;;;;;;;;;;;5071453;28;19955;-61
2022/09/14 00:07:56;;;;;;;;;;;;;;;;;;5055437;28;19924;-62
2022/09/14 00:10:22;;;;;;;;;;;;;;;;;;5047966;28;19912;-60
2022/09/14 00:12:47;;;;;;;;;;;;;;;;;;5062901;28;19916;-61
2022/09/14 00:15:12;;;;;;;;;;;;;;;;;;5063150;28;20007;-62
2022/09/14 00:17:37;;;;;;;;;;;;;;;;;;5087999;28;19927;-62
2022/09/14 00:20:02;;;;;;;;;;;;;;;;;;5091970;28;19912;-59
2022/09/14 00:22:27;;;;;;;;;;;;;;;;;;5081309;28;19912;-61
2022/09/14 00:24:53;;;;;;;;;;;;;;;;;;5080205;28;20367;-61
2022/09/14 00:27:18;;;;;;;;;;;;;;;;;;5075431;28;20407;-62
2022/09/14 00:29:43;;;;;;;;;;;;;;;;;;5064809;28;20397;-61
2022/09/14 00:32:08;;;;;;;;;;;;;;;;;;5064179;28;19957;-61
2022/09/14 00:34:33;;;;;;;;;;;;;;;;;;5079135;28;19919;-60
2022/09/14 00:36:59;;;;;;;;;;;;;;;;;;5078476;28;20514;-62
2022/09/14 00:39:24;;;;;;;;;;;;;;;;;;5081608;28;20386;-61
2022/09/14 00:41:49;;;;;;;;;;;;;;;;;;5078885;28;20283;-61
2022/09/14 00:44:14;;;;;;;;;;;;;;;;;;5083585;28;20423;-61
2022/09/14 00:46:39;;;;;;;;;;;;;;;;;;5086524;28;19981;-61
2022/09/14 00:49:05;;;;;;;;;;;;;;;;;;5084009;28;19912;-60
2022/09/14 00:51:30;;;;;;;;;;;;;;;;;;5081833;28;19973;-61
2022/09/14 00:53:55;;;;;;;;;;;;;;;;;;5072896;28;20011;-61
2022/09/14 00:56:20;;;;;;;;;;;;;;;;;;5088223;28;20356;-60
2022/09/14 00:58:46;;;;;;;;;;;;;;;;;;5078505;28;19920;-61
2022/09/14 01:01:11;;;;;;;;;;;;;;;;;;5075450;28;19912;-60
2022/09/14 01:03:36;;;;;;;;;;;;;;;;;;5074484;28;19973;-60
2022/09/14 01:06:01;;;;;;;;;;;;;;;;;;5080880;28;19913;-62
2022/09/14 01:08:26;;;;;;;;;;;;;;;;;;5080637;28;19915;-62
2022/09/14 01:10:51;;;;;;;;;;;;;;;;;;5090206;28;19935;-60
2022/09/14 01:13:16;;;;;;;;;;;;;;;;;;5077194;28;19916;-61
2022/09/14 01:15:42;;;;;;;;;;;;;;;;;;5077985;28;19916;-61
2022/09/14 01:18:07;;;;;;;;;;;;;;;;;;5078477;28;20361;-62
2022/09/14 01:20:32;;;;;;;;;;;;;;;;;;5082799;28;19912;-60
2022/09/14 01:22:57;;;;;;;;;;;;;;;;;;5085652;28;19919;-62
2022/09/14 01:25:22;;;;;;;;;;;;;;;;;;5083051;28;19947;-61
2022/09/14 01:27:48;;;;;;;;;;;;;;;;;;5083122;28;20025;-61
2022/09/14 01:30:14;;;;;;;;;;;;;;;;;;5075528;28;19946;-61
2022/09/14 01:32:39;;;;;;;;;;;;;;;;;;5085694;28;19916;-62
2022/09/14 01:35:04;;;;;;;;;;;;;;;;;;5092245;28;19951;-62
2022/09/14 01:37:29;;;;;;;;;;;;;;;;;;5091190;28;19916;-61
2022/09/14 01:39:54;;;;;;;;;;;;;;;;;;5073058;28;19912;-62
2022/09/14 01:42:19;;;;;;;;;;;;;;;;;;5080468;28;20650;-62
2022/09/14 01:44:45;;;;;;;;;;;;;;;;;;5061591;28;19973;-62
2022/09/14 01:47:11;;;;;;;;;;;;;;;;;;5078593;28;19920;-62
2022/09/14 01:49:37;;;;;;;;;;;;;;;;;;5078894;28;20386;-61
2022/09/14 01:52:02;;;;;;;;;;;;;;;;;;5062242;28;19916;-61
2022/09/14 01:54:27;;;;;;;;;;;;;;;;;;5073031;28;19966;-61
2022/09/14 01:56:53;;;;;;;;;;;;;;;;;;5060821;28;20011;-62
2022/09/14 01:59:18;;;;;;;;;;;;;;;;;;5080025;28;20376;-61
2022/09/14 02:01:43;;;;;;;;;;;;;;;;;;5054713;28;19908;-61
2022/09/14 02:04:08;;;;;;;;;;;;;;;;;;5078756;28;19995;-63
2022/09/14 02:06:34;;;;;;;;;;;;;;;;;;5066932;28;19913;-61
2022/09/14 02:08:59;;;;;;;;;;;;;;;;;;5088816;28;19956;-60
2022/09/14 02:11:24;;;;;;;;;;;;;;;;;;5088191;28;20014;-60
2022/09/14 02:13:49;;;;;;;;;;;;;;;;;;5076874;28;19916;-61
2022/09/14 02:16:15;;;;;;;;;;;;;;;;;;5075380;28;20017;-61
2022/09/14 02:18:42;;;;;;;;;;;;;;;;;;5084722;28;19961;-61
2022/09/14 02:21:07;;;;;;;;;;;;;;;;;;5064154;28;20003;-61
2022/09/14 02:23:32;;;;;;;;;;;;;;;;;;5076543;28;20002;-61
2022/09/14 02:25:57;;;;;;;;;;;;;;;;;;5083781;28;20253;-61
2022/09/14 02:28:22;;;;;;;;;;;;;;;;;;5082450;28;20296;-61
2022/09/14 02:30:47;;;;;;;;;;;;;;;;;;5076218;28;19970;-61
2022/09/14 02:33:13;;;;;;;;;;;;;;;;;;5080706;28;19927;-61
2022/09/14 02:35:38;;;;;;;;;;;;;;;;;;5081367;28;20356;-62
2022/09/14 02:38:03;;;;;;;;;;;;;;;;;;5086663;28;20311;-62
2022/09/14 02:40:28;;;;;;;;;;;;;;;;;;5078208;28;19916;-61
2022/09/14 02:42:53;;;;;;;;;;;;;;;;;;5079847;28;19913;-62
2022/09/14 02:45:18;;;;;;;;;;;;;;;;;;5084961;28;19915;-61
2022/09/14 02:47:43;;;;;;;;;;;;;;;;;;5083837;28;20350;-61
2022/09/14 02:50:09;;;;;;;;;;;;;;;;;;5084524;28;19912;-61
2022/09/14 02:52:34;;;;;;;;;;;;;;;;;;5064817;28;20387;-60
2022/09/14 02:54:59;;;;;;;;;;;;;;;;;;5056176;28;19912;-60
2022/09/14 02:57:24;;;;;;;;;;;;;;;;;;5063029;28;19943;-61
2022/09/14 02:59:49;;;;;;;;;;;;;;;;;;5074396;28;19916;-60
2022/09/14 03:02:14;;;;;;;;;;;;;;;;;;5089456;28;19912;-61
2022/09/14 03:04:41;;;;;;;;;;;;;;;;;;5075712;28;20364;-60
2022/09/14 03:07:06;;;;;;;;;;;;;;;;;;5062971;28;20003;-61
2022/09/14 03:09:31;;;;;;;;;;;;;;;;;;5083791;28;20028;-61
2022/09/14 03:11:56;;;;;;;;;;;;;;;;;;5081749;28;19970;-61
2022/09/14 03:14:21;;;;;;;;;;;;;;;;;;5080216;28;19972;-60
2022/09/14 03:16:47;;;;;;;;;;;;;;;;;;5082176;28;19924;-61
2022/09/14 03:19:12;;;;;;;;;;;;;;;;;;5075164;28;19912;-60
2022/09/14 03:21:37;;;;;;;;;;;;;;;;;;5085597;28;19916;-61
2022/09/14 03:24:02;;;;;;;;;;;;;;;;;;5058976;28;20284;-60
2022/09/14 03:26:30;;;;;;;;;;;;;;;;;;5079135;28;20327;-61
2022/09/14 03:28:55;;;;;;;;;;;;;;;;;;5072574;28;20379;-62
2022/09/14 03:31:20;;;;;;;;;;;;;;;;;;5078944;28;19917;-61
2022/09/14 03:33:45;;;;;;;;;;;;;;;;;;5075810;28;19913;-61
2022/09/14 03:36:11;;;;;;;;;;;;;;;;;;5059790;28;20349;-60
2022/09/14 03:38:36;;;;;;;;;;;;;;;;;;5081201;28;20335;-61
2022/09/14 03:41:01;;;;;;;;;;;;;;;;;;5074066;28;19919;-59
2022/09/14 03:43:26;;;;;;;;;;;;;;;;;;5082777;28;19956;-60
2022/09/14 03:45:51;;;;;;;;;;;;;;;;;;5077251;28;19997;-60
2022/09/14 03:48:16;;;;;;;;;;;;;;;;;;5085585;28;19913;-61
2022/09/14 03:50:42;;;;;;;;;;;;;;;;;;5086631;28;19912;-61
2022/09/14 03:53:07;;;;;;;;;;;;;;;;;;5082641;28;19967;-61
2022/09/14 03:55:32;;;;;;;;;;;;;;;;;;5081669;28;19912;-62
2022/09/14 03:57:57;;;;;;;;;;;;;;;;;;5084847;28;19919;-60
2022/09/14 04:00:22;;;;;;;;;;;;;;;;;;5087005;28;19912;-60
2022/09/14 04:02:48;;;;;;;;;;;;;;;;;;5057541;28;20337;-61
2022/09/14 04:05:13;;;;;;;;;;;;;;;;;;5061684;28;19952;-60
2022/09/14 04:07:38;;;;;;;;;;;;;;;;;;5076111;28;20279;-61
2022/09/14 04:10:04;;;;;;;;;;;;;;;;;;5080735;28;20399;-61
2022/09/14 04:12:29;;;;;;;;;;;;;;;;;;5084337;28;19923;-61
2022/09/14 04:14:54;;;;;;;;;;;;;;;;;;5082028;28;19981;-61
2022/09/14 04:17:19;;;;;;;;;;;;;;;;;;5067564;28;19920;-61
2022/09/14 04:19:45;;;;;;;;;;;;;;;;;;5078121;28;19920;-61
2022/09/14 04:22:10;;;;;;;;;;;;;;;;;;5091019;28;19995;-61
2022/09/14 04:24:35;;;;;;;;;;;;;;;;;;5065090;28;19917;-59
2022/09/14 04:27:00;;;;;;;;;;;;;;;;;;5064369;28;19913;-60
2022/09/14 04:29:25;;;;;;;;;;;;;;;;;;5072796;28;19917;-61
2022/09/14 04:31:50;;;;;;;;;;;;;;;;;;5064989;28;19916;-63
2022/09/14 04:34:16;;;;;;;;;;;;;;;;;;5089110;28;20007;-63
2022/09/14 04:36:41;;;;;;;;;;;;;;;;;;5077575;28;20273;-66
2022/09/14 04:39:06;;;;;;;;;;;;;;;;;;5060265;28;20330;-66
2022/09/14 04:41:31;;;;;;;;;;;;;;;;;;5085633;28;19975;-66
2022/09/14 04:43:56;;;;;;;;;;;;;;;;;;5079168;28;20272;-65
2022/09/14 04:46:21;;;;;;;;;;;;;;;;;;5075166;28;19991;-66
2022/09/14 04:48:46;;;;;;;;;;;;;;;;;;5085287;28;19923;-66
2022/09/14 04:51:16;;;;;;;;;;;;;;;;;;5081963;28;19916;-66
2022/09/14 04:53:41;;;;;;;;;;;;;;;;;;5067305;28;19957;-65
2022/09/14 04:56:06;;;;;;;;;;;;;;;;;;5071500;28;19916;-66
2022/09/14 04:58:32;;;;;;;;;;;;;;;;;;5071875;28;19934;-67
2022/09/14 05:00:57;;;;;;;;;;;;;;;;;;5061823;28;19961;-66
2022/09/14 05:03:22;;;;;;;;;;;;;;;;;;5085076;28;19915;-67
2022/09/14 05:05:47;;;;;;;;;;;;;;;;;;5076646;28;20469;-66
2022/09/14 05:08:12;;;;;;;;;;;;;;;;;;5061135;28;19916;-67
2022/09/14 05:10:37;;;;;;;;;;;;;;;;;;5078410;28;19912;-66
2022/09/14 05:13:03;;;;;;;;;;;;;;;;;;5055966;28;20010;-66
2022/09/14 05:15:28;;;;;;;;;;;;;;;;;;5053179;28;20357;-66
2022/09/14 05:17:53;;;;;;;;;;;;;;;;;;5076484;28;19964;-66
2022/09/14 05:20:18;;;;;;;;;;;;;;;;;;5092940;28;20380;-66
2022/09/14 05:22:43;;;;;;;;;;;;;;;;;;5074704;28;19920;-66
2022/09/14 05:25:08;;;;;;;;;;;;;;;;;;5068179;28;19995;-66
2022/09/14 05:27:33;;;;;;;;;;;;;;;;;;5080544;28;20331;-66
2022/09/14 05:29:59;;;;;;;;;;;;;;;;;;5072645;28;20284;-66
2022/09/14 05:32:24;;;;;;;;;;;;;;;;;;5076113;28;19926;-66
2022/09/14 05:34:49;;;;;;;;;;;;;;;;;;5068198;28;19912;-66
2022/09/14 05:37:14;;;;;;;;;;;;;;;;;;5079298;28;19912;-66
2022/09/14 05:39:39;;;;;;;;;;;;;;;;;;5067687;28;19912;-66
2022/09/14 05:42:04;;;;;;;;;;;;;;;;;;5061275;28;19990;-66
2022/09/14 05:44:29;;;;;;;;;;;;;;;;;;5083560;28;19918;-65
2022/09/14 05:46:55;;;;;;;;;;;;;;;;;;5080766;28;20374;-65
2022/09/14 05:49:20;;;;;;;;;;;;;;;;;;5080500;28;19927;-65
2022/09/14 05:51:45;;;;;;;;;;;;;;;;;;5083441;28;19916;-65
2022/09/14 05:54:10;;;;;;;;;;;;;;;;;;5075169;28;19909;-65
2022/09/14 05:56:36;;;;;;;;;;;;;;;;;;5085073;28;19956;-67
2022/09/14 05:59:01;;;;;;;;;;;;;;;;;;5072079;28;20576;-66
2022/09/14 06:01:26;;;;;;;;;;;;;;;;;;5081488;28;19963;-65
2022/09/14 06:03:51;;;;;;;;;;;;;;;;;;5076183;28;20065;-66
2022/09/14 06:06:16;;;;;;;;;;;;;;;;;;5074434;28;19912;-65
2022/09/14 06:08:41;;;;;;;;;;;;;;;;;;5059946;28;19912;-66
2022/09/14 06:11:06;;;;;;;;;;;;;;;;;;5078479;28;19993;-66
2022/09/14 06:13:32;;;;;;;;;;;;;;;;;;5058244;28;20290;-65
2022/09/14 06:15:57;;;;;;;;;;;;;;;;;;5088258;28;19916;-66
2022/09/14 06:18:22;;;;;;;;;;;;;;;;;;5104222;28;20289;-67
2022/09/14 06:20:47;;;;;;;;;;;;;;;;;;5089618;28;19958;-66
2022/09/14 06:23:12;;;;;;;;;;;;;;;;;;5067771;28;19924;-66
2022/09/14 06:25:37;;;;;;;;;;;;;;;;;;5085542;28;19909;-65
2022/09/14 06:28:02;;;;;;;;;;;;;;;;;;5070956;28;20007;-67
2022/09/14 06:30:28;;;;;;;;;;;;;;;;;;5076234;28;19912;-66
2022/09/14 06:32:53;;;;;;;;;;;;;;;;;;5077057;28;19912;-66
2022/09/14 06:35:18;;;;;;;;;;;;;;;;;;5065029;28;20008;-66
2022/09/14 06:37:43;;;;;;;;;;;;;;;;;;5083797;28;19939;-65
2022/09/14 06:40:09;;;;;;;;;;;;;;;;;;5062140;28;19912;-66
2022/09/14 06:42:34;;;;;;;;;;;;;;;;;;5072623;28;19919;-67
2022/09/14 06:44:59;;;;;;;;;;;;;;;;;;5080258;28;19955;-65
2022/09/14 06:47:24;;;;;;;;;;;;;;;;;;5075470;28;19918;-66
2022/09/14 06:49:49;;;;;;;;;;;;;;;;;;5075492;28;19912;-66
2022/09/14 06:52:15;;;;;;;;;;;;;;;;;;5090007;28;19911;-65
2022/09/14 06:54:40;;;;;;;;;;;;;;;;;;5092278;28;20040;-65
2022/09/14 06:57:05;;;;;;;;;;;;;;;;;;5083575;28;20545;-66
2022/09/14 06:59:30;;;;;;;;;;;;;;;;;;5072097;28;19916;-65
2022/09/14 07:01:55;;;;;;;;;;;;;;;;;;5054192;28;20356;-66
2022/09/14 07:04:21;;;;;;;;;;;;;;;;;;5078444;28;20569;-66
2022/09/14 07:06:46;;;;;;;;;;;;;;;;;;5059885;28;19974;-65
2022/09/14 07:09:11;;;;;;;;;;;;;;;;;;5056156;28;19935;-66
2022/09/14 07:11:36;;;;;;;;;;;;;;;;;;5079834;28;19913;-66
2022/09/14 07:14:01;;;;;;;;;;;;;;;;;;5057395;28;19920;-66
2022/09/14 07:16:27;;;;;;;;;;;;;;;;;;5086865;28;19920;-66
2022/09/14 07:18:52;;;;;;;;;;;;;;;;;;5081789;28;19955;-66
2022/09/14 07:21:17;;;;;;;;;;;;;;;;;;5100357;28;19918;-66
2022/09/14 07:23:42;;;;;;;;;;;;;;;;;;5094232;28;19915;-66
2022/09/14 07:26:07;;;;;;;;;;;;;;;;;;5091111;28;20314;-66
2022/09/14 07:28:32;;;;;;;;;;;;;;;;;;5093178;28;19922;-66
2022/09/14 07:30:57;;;;;;;;;;;;;;;;;;5095771;28;20057;-67
2022/09/14 07:33:23;;;;;;;;;;;;;;;;;;5065514;28;19923;-66
2022/09/14 07:35:48;;;;;;;;;;;;;;;;;;5090953;28;19927;-66
2022/09/14 07:38:13;;;;;;;;;;;;;;;;;;5093535;28;19912;-65
2022/09/14 07:40:38;;;;;;;;;;;;;;;;;;5058252;28;19908;-66
2022/09/14 07:43:05;;;;;;;;;;;;;;;;;;5075602;28;19999;-66
2022/09/14 07:45:30;;;;;;;;;;;;;;;;;;5074646;28;19916;-66
2022/09/14 07:47:55;;;;;;;;;;;;;;;;;;5104542;28;19912;-66
2022/09/14 07:50:20;;;;;;;;;;;;;;;;;;5093466;28;19913;-66
2022/09/14 07:52:45;;;;;;;;;;;;;;;;;;5069930;28;19971;-66
2022/09/14 07:55:11;;;;;;;;;;;;;;;;;;5101992;28;20162;-67
2022/09/14 07:57:36;;;;;;;;;;;;;;;;;;5094468;28;20427;-66
2022/09/14 08:00:02;;;;;;;;;;;;;;;;;;5057528;28;19912;-66
2022/09/14 08:02:27;;;;;;;;;;;;;;;;;;5084000;28;19912;-66
2022/09/14 08:04:53;;;;;;;;;;;;;;;;;;5089324;28;19953;-66
2022/09/14 08:07:18;;;;;;;;;;;;;;;;;;5088722;28;19912;-67
2022/09/14 08:09:44;;;;;;;;;;;;;;;;;;5082570;28;20284;-66
2022/09/14 08:12:09;;;;;;;;;;;;;;;;;;5093064;28;20394;-66
2022/09/14 08:14:35;;;;;;;;;;;;;;;;;;5084882;28;19909;-66
2022/09/14 08:17:01;;;;;;;;;;;;;;;;;;5089285;28;20276;-65
2022/09/14 08:19:26;;;;;;;;;;;;;;;;;;5095244;28;19925;-66
2022/09/14 08:21:51;;;;;;;;;;;;;;;;;;5101641;28;19908;-66
2022/09/14 08:24:16;;;;;;;;;;;;;;;;;;5064115;28;19916;-66
2022/09/14 08:26:41;;;;;;;;;;;;;;;;;;5081655;28;19918;-66
2022/09/14 08:29:06;;;;;;;;;;;;;;;;;;5076375;28;19919;-66
2022/09/14 08:31:32;;;;;;;;;;;;;;;;;;5081654;28;20215;-66
2022/09/14 08:33:57;;;;;;;;;;;;;;;;;;5075288;28;20015;-66
2022/09/14 08:36:22;;;;;;;;;;;;;;;;;;5056205;28;19908;-66
2022/09/14 08:38:47;;;;;;;;;;;;;;;;;;5054750;28;19967;-66
2022/09/14 08:41:12;;;;;;;;;;;;;;;;;;5076333;28;19920;-66
2022/09/14 08:43:37;;;;;;;;;;;;;;;;;;5076106;28;19908;-66
2022/09/14 08:46:02;;;;;;;;;;;;;;;;;;5080907;28;20364;-65
2022/09/14 08:48:28;;;;;;;;;;;;;;;;;;5088629;28;20000;-65
2022/09/14 08:50:53;;;;;;;;;;;;;;;;;;5086483;28;20023;-65
2022/09/14 08:53:18;;;;;;;;;;;;;;;;;;5056522;28;19916;-66
2022/09/14 08:55:43;;;;;;;;;;;;;;;;;;5061479;28;19973;-66
2022/09/14 08:58:08;;;;;;;;;;;;;;;;;;5089426;28;19935;-67
2022/09/14 09:00:33;;;;;;;;;;;;;;;;;;5084510;28;19919;-65
2022/09/14 09:02:58;;;;;;;;;;;;;;;;;;5063029;28;20372;-65
2022/09/14 09:05:24;;;;;;;;;;;;;;;;;;5063917;28;19999;-66
2022/09/14 09:07:50;;;;;;;;;;;;;;;;;;5068623;28;19942;-67
2022/09/14 09:10:16;;;;;;;;;;;;;;;;;;5069992;28;19959;-66
2022/09/14 09:12:41;;;;;;;;;;;;;;;;;;5078675;28;19979;-66
2022/09/14 09:15:06;;;;;;;;;;;;;;;;;;5058273;28;19912;-66
2022/09/14 09:17:31;;;;;;;;;;;;;;;;;;5066261;28;19928;-66
2022/09/14 09:19:56;;;;;;;;;;;;;;;;;;5073139;28;19915;-66
2022/09/14 09:22:21;;;;;;;;;;;;;;;;;;5055242;28;19959;-65
2022/09/14 09:24:46;;;;;;;;;;;;;;;;;;5050472;28;19916;-66
2022/09/14 09:27:12;;;;;;;;;;;;;;;;;;5046930;28;20277;-66
2022/09/14 09:29:37;;;;;;;;;;;;;;;;;;5045707;28;20402;-66
2022/09/14 09:32:02;;;;;;;;;;;;;;;;;;5043103;28;19921;-66
2022/09/14 09:34:27;;;;;;;;;;;;;;;;;;5042784;28;19960;-67
2022/09/14 09:36:54;;;;;;;;;;;;;;;;;;5063501;28;19913;-66
2022/09/14 09:39:19;;;;;;;;;;;;;;;;;;5051525;28;19997;-66
2022/09/14 09:41:44;;;;;;;;;;;;;;;;;;5057594;28;19951;-66
2022/09/14 09:44:10;;;;;;;;;;;;;;;;;;5042079;28;19913;-65
2022/09/14 09:46:35;;;;;;;;;;;;;;;;;;5056982;28;19913;-65
2022/09/14 09:49:00;;;;;;;;;;;;;;;;;;5056661;28;19913;-65
2022/09/14 09:51:25;;;;;;;;;;;;;;;;;;5063840;28;19912;-66
2022/09/14 09:53:50;;;;;;;;;;;;;;;;;;5050063;28;19913;-66
2022/09/14 09:56:16;;;;;;;;;;;;;;;;;;5043972;28;19926;-66
2022/09/14 09:58:41;;;;;;;;;;;;;;;;;;5063426;28;20003;-66
2022/09/14 10:01:06;;;;;;;;;;;;;;;;;;5033853;28;20306;-66
2022/09/14 10:03:31;;;;;;;;;;;;;;;;;;5060774;28;19966;-66
2022/09/14 10:05:56;;;;;;;;;;;;;;;;;;5041898;28;19963;-66
2022/09/14 10:08:21;;;;;;;;;;;;;;;;;;5043801;28;20377;-70
2022/09/14 10:10:46;;;;;;;;;;;;;;;;;;5058605;28;20366;-63
2022/09/14 10:13:11;;;;;;;;;;;;;;;;;;5054642;28;19919;-66
2022/09/14 10:15:37;;;;;;;;;;;;;;;;;;5058627;28;19955;-65
2022/09/14 10:18:02;;;;;;;;;;;;;;;;;;5068300;28;20292;-65
2022/09/14 10:20:27;;;;;;;;;;;;;;;;;;5058478;28;19923;-65
2022/09/14 10:22:52;;;;;;;;;;;;;;;;;;5079132;28;20469;-67
2022/09/14 10:25:18;;;;;;;;;;;;;;;;;;5082165;28;19976;-70
2022/09/14 10:27:43;;;;;;;;;;;;;;;;;;5083988;28;20340;-63
2022/09/14 10:30:08;;;;;;;;;;;;;;;;;;5078513;28;19912;-65
2022/09/14 10:32:33;;;;;;;;;;;;;;;;;;5061158;28;20380;-64
2022/09/14 10:34:58;;;;;;;;;;;;;;;;;;5071373;28;20537;-65
2022/09/14 10:37:24;;;;;;;;;;;;;;;;;;5059580;28;20252;-63
2022/09/14 10:39:49;;;;;;;;;;;;;;;;;;5081375;28;19912;-63
2022/09/14 10:42:15;;;;;;;;;;;;;;;;;;5073877;28;20357;-63
2022/09/14 10:44:42;;;;;;;;;;;;;;;;;;5091621;28;20391;-62
2022/09/14 10:47:08;;;;;;;;;;;;;;;;;;5074452;28;19920;-63
2022/09/14 10:49:36;;;;;;;;;;;;;;;;;;5064993;28;19916;-63
2022/09/14 10:52:01;;;;;;;;;;;;;;;;;;5094017;28;20372;-64
2022/09/14 10:54:26;;;;;;;;;;;;;;;;;;5072279;28;19916;-61
2022/09/14 10:56:52;;;;;;;;;;;;;;;;;;5083267;28;19912;-64
2022/09/14 10:59:17;;;;;;;;;;;;;;;;;;5083186;28;19912;-64
2022/09/14 11:01:42;;;;;;;;;;;;;;;;;;5080893;28;20401;-67
2022/09/14 11:04:07;;;;;;;;;;;;;;;;;;5063088;28;19913;-66
2022/09/14 11:06:33;;;;;;;;;;;;;;;;;;5083163;28;19963;-65
2022/09/14 11:08:58;;;;;;;;;;;;;;;;;;5075003;28;20155;-63
2022/09/14 11:11:23;;;;;;;;;;;;;;;;;;5064482;28;20114;-66
2022/09/14 11:13:48;;;;;;;;;;;;;;;;;;5061596;28;19939;-65
2022/09/14 11:16:13;;;;;;;;;;;;;;;;;;5088368;28;19936;-62
2022/09/14 11:18:38;;;;;;;;;;;;;;;;;;5087694;28;19972;-62
2022/09/14 11:21:03;;;;;;;;;;;;;;;;;;5083250;28;19930;-62
2022/09/14 11:23:28;;;;;;;;;;;;;;;;;;5087357;28;19916;-62
2022/09/14 11:25:54;;;;;;;;;;;;;;;;;;5077953;28;19909;-62
2022/09/14 11:28:19;;;;;;;;;;;;;;;;;;5076957;28;20010;-62
2022/09/14 11:30:44;;;;;;;;;;;;;;;;;;5084751;28;19912;-62
2022/09/14 11:33:09;;;;;;;;;;;;;;;;;;5079207;28;19912;-62
2022/09/14 11:35:34;;;;;;;;;;;;;;;;;;5089461;28;19919;-63
2022/09/14 11:38:00;;;;;;;;;;;;;;;;;;5084717;28;19919;-63
2022/09/14 11:40:25;;;;;;;;;;;;;;;;;;5082494;28;20021;-63
2022/09/14 11:42:50;;;;;;;;;;;;;;;;;;5084591;28;19913;-63
2022/09/14 11:45:15;;;;;;;;;;;;;;;;;;5081380;28;20015;-62
2022/09/14 11:47:40;;;;;;;;;;;;;;;;;;5082420;28;19919;-62
2022/09/14 11:50:05;;;;;;;;;;;;;;;;;;5080643;28;19912;-61
2022/09/14 11:52:31;;;;;;;;;;;;;;;;;;5081653;28;19920;-62
2022/09/14 11:54:56;;;;;;;;;;;;;;;;;;5079395;28;19961;-63
2022/09/14 11:57:21;;;;;;;;;;;;;;;;;;5082029;28;20398;-63
2022/09/14 11:59:49;;;;;;;;;;;;;;;;;;5078420;28;19919;-63
2022/09/14 12:02:14;;;;;;;;;;;;;;;;;;5084989;28;19958;-62
2022/09/14 12:04:39;;;;;;;;;;;;;;;;;;5080147;28;19913;-63
2022/09/14 12:07:05;;;;;;;;;;;;;;;;;;5079621;28;19912;-62
2022/09/14 12:09:30;;;;;;;;;;;;;;;;;;5087564;28;19959;-63
2022/09/14 12:11:57;;;;;;;;;;;;;;;;;;5079999;28;19920;-63
2022/09/14 12:14:22;;;;;;;;;;;;;;;;;;5075115;28;20339;-63
2022/09/14 12:16:47;;;;;;;;;;;;;;;;;;5062147;28;19928;-63
2022/09/14 12:19:12;;;;;;;;;;;;;;;;;;5057980;28;19917;-62
2022/09/14 12:21:37;;;;;;;;;;;;;;;;;;5046264;28;19935;-63
2022/09/14 12:24:02;;;;;;;;;;;;;;;;;;5062112;28;20274;-63
2022/09/14 12:26:28;;;;;;;;;;;;;;;;;;5048338;28;19941;-63
2022/09/14 12:28:54;;;;;;;;;;;;;;;;;;5057589;28;19909;-61
2022/09/14 12:31:20;;;;;;;;;;;;;;;;;;5057205;28;19912;-62
2022/09/14 12:33:45;;;;;;;;;;;;;;;;;;5061756;28;20278;-62
2022/09/14 12:36:10;;;;;;;;;;;;;;;;;;5061298;28;19909;-62
2022/09/14 12:38:35;;;;;;;;;;;;;;;;;;5038382;28;20054;-62
2022/09/14 12:41:00;;;;;;;;;;;;;;;;;;5061409;28;19936;-62
2022/09/14 12:43:25;;;;;;;;;;;;;;;;;;5062379;28;19977;-62
2022/09/14 12:45:51;;;;;;;;;;;;;;;;;;5061458;28;19916;-62
2022/09/14 12:48:16;;;;;;;;;;;;;;;;;;5057615;28;19920;-63
2022/09/14 12:50:41;;;;;;;;;;;;;;;;;;5055463;28;19917;-63
2022/09/14 12:53:07;;;;;;;;;;;;;;;;;;5053760;28;19982;-63
2022/09/14 12:55:32;;;;;;;;;;;;;;;;;;5056996;28;19970;-62
2022/09/14 12:57:57;;;;;;;;;;;;;;;;;;5057796;28;19916;-62
2022/09/14 13:00:23;;;;;;;;;;;;;;;;;;5068036;28;19917;-62
2022/09/14 13:02:48;;;;;;;;;;;;;;;;;;5061882;28;20334;-62
2022/09/14 13:05:13;;;;;;;;;;;;;;;;;;5057555;28;19999;-62
2022/09/14 13:07:38;;;;;;;;;;;;;;;;;;5057066;28;19920;-63
2022/09/14 13:10:03;;;;;;;;;;;;;;;;;;5060313;28;20387;-63
2022/09/14 13:12:28;;;;;;;;;;;;;;;;;;5066559;28;19971;-64
2022/09/14 13:14:53;;;;;;;;;;;;;;;;;;5058626;28;19913;-62
2022/09/14 13:17:18;;;;;;;;;;;;;;;;;;5053959;28;19921;-63
2022/09/14 13:19:44;;;;;;;;;;;;;;;;;;5055860;28;19913;-64
2022/09/14 13:22:09;;;;;;;;;;;;;;;;;;5063254;28;19908;-62
2022/09/14 13:24:34;;;;;;;;;;;;;;;;;;5055185;28;19925;-63
2022/09/14 13:26:59;;;;;;;;;;;;;;;;;;5061594;28;20026;-64
2022/09/14 13:29:25;;;;;;;;;;;;;;;;;;5057684;28;19920;-64
2022/09/14 13:31:51;;;;;;;;;;;;;;;;;;5062303;28;20007;-64
2022/09/14 13:34:16;;;;;;;;;;;;;;;;;;5055654;28;19912;-63
2022/09/14 13:36:41;;;;;;;;;;;;;;;;;;5064413;28;20050;-68
2022/09/14 13:39:06;;;;;;;;;;;;;;;;;;5060787;28;19959;-64
2022/09/14 13:41:31;;;;;;;;;;;;;;;;;;5054776;28;20376;-61
2022/09/14 13:43:56;;;;;;;;;;;;;;;;;;5055942;28;19913;-61
2022/09/14 13:46:21;;;;;;;;;;;;;;;;;;5061944;28;20261;-61
2022/09/14 13:48:46;;;;;;;;;;;;;;;;;;5056543;28;20397;-61
2022/09/14 13:51:12;;;;;;;;;;;;;;;;;;5055736;28;20338;-62
2022/09/14 13:53:37;;;;;;;;;;;;;;;;;;5059447;28;19924;-62
2022/09/14 13:56:02;;;;;;;;;;;;;;;;;;5056642;28;19917;-61
2022/09/14 13:58:27;;;;;;;;;;;;;;;;;;5067115;28;19917;-61
2022/09/14 14:00:52;;;;;;;;;;;;;;;;;;5066265;28;20007;-61
2022/09/14 14:03:17;;;;;;;;;;;;;;;;;;5054103;28;19913;-61
2022/09/14 14:05:43;;;;;;;;;;;;;;;;;;5052690;28;19975;-61
2022/09/14 14:08:08;;;;;;;;;;;;;;;;;;5076366;28;19935;-61
2022/09/14 14:10:33;;;;;;;;;;;;;;;;;;5055598;28;19921;-60
2022/09/14 14:12:58;;;;;;;;;;;;;;;;;;5056402;28;19960;-61
2022/09/14 14:15:23;;;;;;;;;;;;;;;;;;5058186;28;19913;-61
2022/09/14 14:17:48;;;;;;;;;;;;;;;;;;5076310;28;19916;-63
2022/09/14 14:20:13;;;;;;;;;;;;;;;;;;5084345;28;19912;-63
2022/09/14 14:22:38;;;;;;;;;;;;;;;;;;5091379;28;19912;-60
2022/09/14 14:25:04;;;;;;;;;;;;;;;;;;5085043;28;20421;-59
2022/09/14 14:27:29;;;;;;;;;;;;;;;;;;5085005;28;19965;-61
2022/09/14 14:29:54;;;;;;;;;;;;;;;;;;5086556;28;19920;-60
2022/09/14 14:32:22;;;;;;;;;;;;;;;;;;5088717;28;20368;-60
2022/09/14 14:34:47;;;;;;;;;;;;;;;;;;5069298;28;19922;-59
2022/09/14 14:37:13;;;;;;;;;;;;;;;;;;5081975;28;19918;-60
2022/09/14 14:39:38;;;;;;;;;;;;;;;;;;5080827;28;19913;-60
2022/09/14 14:42:03;;;;;;;;;;;;;;;;;;5079503;28;20215;-59
2022/09/14 14:44:28;;;;;;;;;;;;;;;;;;5085617;28;19923;-59
2022/09/14 14:46:53;;;;;;;;;;;;;;;;;;5080283;28;19912;-59
2022/09/14 14:49:19;;;;;;;;;;;;;;;;;;5082835;28;19920;-59
2022/09/14 14:51:44;;;;;;;;;;;;;;;;;;5089025;28;20185;-59
2022/09/14 14:54:09;;;;;;;;;;;;;;;;;;5079872;28;19919;-60
2022/09/14 14:56:34;;;;;;;;;;;;;;;;;;5087895;28;20003;-59
2022/09/14 14:59:00;;;;;;;;;;;;;;;;;;5085916;28;19935;-58
2022/09/14 15:01:25;;;;;;;;;;;;;;;;;;5086901;28;19962;-60
2022/09/14 15:03:50;;;;;;;;;;;;;;;;;;5081349;28;19954;-58
2022/09/14 15:06:15;;;;;;;;;;;;;;;;;;5082330;28;20273;-59
2022/09/14 15:08:40;;;;;;;;;;;;;;;;;;5085075;28;20288;-59
2022/09/14 15:11:05;;;;;;;;;;;;;;;;;;5087008;28;19920;-59
2022/09/14 15:13:31;;;;;;;;;;;;;;;;;;5083431;28;19917;-59
2022/09/14 15:15:56;;;;;;;;;;;;;;;;;;5080283;28;19924;-72
2022/09/14 15:18:21;;;;;;;;;;;;;;;;;;5085096;28;19927;-64
2022/09/14 15:20:46;;;;;;;;;;;;;;;;;;5083054;28;19966;-64
2022/09/14 15:23:11;;;;;;;;;;;;;;;;;;5085879;28;20444;-63
2022/09/14 15:25:36;;;;;;;;;;;;;;;;;;5086085;28;20368;-64
2022/09/14 15:28:01;;;;;;;;;;;;;;;;;;5082639;28;20054;-65
2022/09/14 15:30:27;;;;;;;;;;;;;;;;;;5085235;28;20284;-64
2022/09/14 15:32:52;;;;;;;;;;;;;;;;;;5086308;28;20018;-65
2022/09/14 15:35:17;;;;;;;;;;;;;;;;;;5080444;28;20103;-67
2022/09/14 15:37:42;;;;;;;;;;;;;;;;;;5087892;28;19916;-64
2022/09/14 15:40:07;;;;;;;;;;;;;;;;;;5081605;28;19916;-63
2022/09/14 15:42:32;;;;;;;;;;;;;;;;;;5091742;28;19913;-64
2022/09/14 15:44:57;;;;;;;;;;;;;;;;;;5089464;28;19959;-65
2022/09/14 15:47:23;;;;;;;;;;;;;;;;;;5066924;28;20006;-62
2022/09/14 15:49:48;;;;;;;;;;;;;;;;;;5070536;28;19916;-64
2022/09/14 15:52:13;;;;;;;;;;;;;;;;;;5068273;28;20380;-68
2022/09/14 15:54:38;;;;;;;;;;;;;;;;;;5070571;28;19912;-65
2022/09/14 15:59:47;;;;;;;;;;;;;;;;;;5090223;28;19958;-65
2022/09/14 16:02:12;;;;;;;;;;;;;;;;;;5066334;28;19912;-67
2022/09/14 16:04:37;;;;;;;;;;;;;;;;;;5091249;28;19965;-65
2022/09/14 16:07:04;;;;;;;;;;;;;;;;;;5085119;28;20486;-63
2022/09/14 16:09:29;;;;;;;;;;;;;;;;;;5065088;28;19970;-65
2022/09/14 16:11:54;;;;;;;;;;;;;;;;;;5086017;28;19944;-66
2022/09/14 16:14:19;;;;;;;;;;;;;;;;;;5090302;28;19912;-63
2022/09/14 16:16:44;;;;;;;;;;;;;;;;;;5081521;28;19923;-66
2022/09/14 16:19:09;;;;;;;;;;;;;;;;;;5079358;28;19920;-63
2022/09/14 16:21:35;;;;;;;;;;;;;;;;;;5085889;28;19920;-64
2022/09/14 16:24:00;;;;;;;;;;;;;;;;;;5085069;28;19913;-65
2022/09/14 16:26:25;;;;;;;;;;;;;;;;;;5085653;28;20056;-66
2022/09/14 16:28:50;;;;;;;;;;;;;;;;;;5070675;28;19912;-64
2022/09/14 16:31:15;;;;;;;;;;;;;;;;;;5082170;28;19928;-61
2022/09/14 16:33:41;;;;;;;;;;;;;;;;;;5064683;28;20369;-63